sensor_id;sensor_type;location;lat;lon;timestamp;pressure;altitude;pressure_sealevel;temperature;humidity
24154;BME280;12312;53.362;-1.518;2022-12-18T00:00:43;99592.78;;;0.55;100.00
24154;BME280;12312;53.362;-1.518;2022-12-18T00:03:09;99594.97;;;0.70;100.00
24154;BME280;12312;53.362;-1.518;2022-12-18T00:05:36;99593.19;;;0.72;100.00
24154;BME280;12312;53.362;-1.518;2022-12-18T00:08:02;99582.66;;;0.74;100.00
24154;BME280;12312;53.362;-1.518;2022-12-18T00:10:28;99573.03;;;0.76;100.00
24154;BME280;12312;53.362;-1.518;2022-12-18T00:12:56;99564.16;;;0.80;100.00
24154;BME280;12312;53.362;-1.518;2022-12-18T00:15:21;99579.09;;;0.76;100.00
24154;BME280;12312;53.362;-1.518;2022-12-18T00:17:47;99577.31;;;0.78;99.66
24154;BME280;12312;53.362;-1.518;2022-12-18T00:20:13;99592.19;;;0.76;100.00
24154;BME280;12312;53.362;-1.518;2022-12-18T00:22:39;99581.84;;;0.72;100.00
24154;BME280;12312;53.362;-1.518;2022-12-18T00:25:04;99582.63;;;0.75;98.56
24154;BME280;12312;53.362;-1.518;2022-12-18T00:27:30;99590.16;;;0.55;99.66
24154;BME280;12312;53.362;-1.518;2022-12-18T00:29:56;99593.84;;;0.48;100.00
24154;BME280;12312;53.362;-1.518;2022-12-18T00:32:21;99588.56;;;0.50;100.00
24154;BME280;12312;53.362;-1.518;2022-12-18T00:34:47;99601.66;;;0.50;100.00
24154;BME280;12312;53.362;-1.518;2022-12-18T00:37:12;99600.28;;;0.35;100.00
24154;BME280;12312;53.362;-1.518;2022-12-18T00:39:38;99595.75;;;0.42;100.00
24154;BME280;12312;53.362;-1.518;2022-12-18T00:42:04;99599.41;;;0.36;100.00
24154;BME280;12312;53.362;-1.518;2022-12-18T00:44:48;99594.16;;;0.36;100.00
24154;BME280;12312;53.362;-1.518;2022-12-18T00:47:13;99586.94;;;0.44;100.00
24154;BME280;12312;53.362;-1.518;2022-12-18T00:49:39;99590.28;;;0.17;100.00
24154;BME280;12312;53.362;-1.518;2022-12-18T00:52:05;99587.03;;;0.09;100.00
24154;BME280;12312;53.362;-1.518;2022-12-18T00:54:31;99586.94;;;0.12;100.00
24154;BME280;12312;53.362;-1.518;2022-12-18T00:56:56;99595.56;;;0.16;100.00
24154;BME280;12312;53.362;-1.518;2022-12-18T00:59:22;99605.09;;;0.18;100.00
24154;BME280;12312;53.362;-1.518;2022-12-18T01:01:50;99598.34;;;0.08;100.00
24154;BME280;12312;53.362;-1.518;2022-12-18T01:04:15;99608.91;;;0.05;100.00
24154;BME280;12312;53.362;-1.518;2022-12-18T01:06:41;99614.09;;;0.07;100.00
24154;BME280;12312;53.362;-1.518;2022-12-18T01:09:07;99611.63;;;0.00;100.00
24154;BME280;12312;53.362;-1.518;2022-12-18T01:11:32;99605.94;;;0.19;100.00
24154;BME280;12312;53.362;-1.518;2022-12-18T01:14:02;99612.03;;;0.19;100.00
24154;BME280;12312;53.362;-1.518;2022-12-18T01:16:27;99614.81;;;0.13;100.00
24154;BME280;12312;53.362;-1.518;2022-12-18T01:18:54;99612.13;;;0.16;100.00
24154;BME280;12312;53.362;-1.518;2022-12-18T01:21:21;99606.09;;;0.13;100.00
24154;BME280;12312;53.362;-1.518;2022-12-18T01:23:51;99601.28;;;-0.04;100.00
24154;BME280;12312;53.362;-1.518;2022-12-18T01:26:17;99593.28;;;0.02;100.00
24154;BME280;12312;53.362;-1.518;2022-12-18T01:28:44;99591.72;;;-0.05;100.00
24154;BME280;12312;53.362;-1.518;2022-12-18T01:31:21;99584.50;;;-0.31;100.00
24154;BME280;12312;53.362;-1.518;2022-12-18T01:33:51;99588.78;;;-0.28;100.00
24154;BME280;12312;53.362;-1.518;2022-12-18T01:38:42;99586.03;;;-0.22;100.00
24154;BME280;12312;53.362;-1.518;2022-12-18T01:41:08;99591.81;;;-0.46;100.00
24154;BME280;12312;53.362;-1.518;2022-12-18T01:44:00;99597.81;;;-0.41;100.00
24154;BME280;12312;53.362;-1.518;2022-12-18T01:46:26;99602.53;;;-0.20;100.00
24154;BME280;12312;53.362;-1.518;2022-12-18T01:48:58;99593.69;;;-0.15;100.00
24154;BME280;12312;53.362;-1.518;2022-12-18T01:51:27;99599.94;;;-0.20;100.00
24154;BME280;12312;53.362;-1.518;2022-12-18T01:53:52;99603.25;;;-0.14;100.00
24154;BME280;12312;53.362;-1.518;2022-12-18T01:56:20;99592.69;;;-0.11;100.00
24154;BME280;12312;53.362;-1.518;2022-12-18T02:01:15;99605.88;;;-0.15;100.00
24154;BME280;12312;53.362;-1.518;2022-12-18T02:03:42;99614.41;;;-0.07;100.00
24154;BME280;12312;53.362;-1.518;2022-12-18T02:09:13;99611.22;;;-0.20;100.00
24154;BME280;12312;53.362;-1.518;2022-12-18T02:11:52;99613.50;;;-0.41;100.00
24154;BME280;12312;53.362;-1.518;2022-12-18T02:24:53;99605.03;;;-0.52;100.00
24154;BME280;12312;53.362;-1.518;2022-12-18T02:27:21;99604.88;;;-0.46;100.00
24154;BME280;12312;53.362;-1.518;2022-12-18T02:29:50;99611.53;;;-0.33;100.00
24154;BME280;12312;53.362;-1.518;2022-12-18T02:32:24;99615.13;;;-0.37;100.00
24154;BME280;12312;53.362;-1.518;2022-12-18T02:34:51;99610.00;;;-0.42;100.00
24154;BME280;12312;53.362;-1.518;2022-12-18T02:37:20;99613.72;;;-0.53;100.00
24154;BME280;12312;53.362;-1.518;2022-12-18T02:39:47;99619.66;;;-0.45;100.00
24154;BME280;12312;53.362;-1.518;2022-12-18T02:42:14;99616.25;;;-0.47;100.00
24154;BME280;12312;53.362;-1.518;2022-12-18T02:44:49;99616.19;;;-0.44;100.00
24154;BME280;12312;53.362;-1.518;2022-12-18T02:47:19;99617.84;;;-0.42;100.00
24154;BME280;12312;53.362;-1.518;2022-12-18T02:50:41;99620.59;;;-0.48;100.00
24154;BME280;12312;53.362;-1.518;2022-12-18T02:53:06;99607.56;;;-0.49;100.00
24154;BME280;12312;53.362;-1.518;2022-12-18T03:01:26;99596.81;;;-0.75;100.00
24154;BME280;12312;53.362;-1.518;2022-12-18T03:04:23;99583.72;;;-0.74;100.00
24154;BME280;12312;53.362;-1.518;2022-12-18T03:06:55;99604.06;;;-0.89;100.00
24154;BME280;12312;53.362;-1.518;2022-12-18T03:09:29;99604.19;;;-0.95;100.00
24154;BME280;12312;53.362;-1.518;2022-12-18T03:12:04;99588.53;;;-0.95;100.00
24154;BME280;12312;53.362;-1.518;2022-12-18T03:15:11;99596.31;;;-0.92;100.00
24154;BME280;12312;53.362;-1.518;2022-12-18T03:17:37;99594.63;;;-0.95;100.00
24154;BME280;12312;53.362;-1.518;2022-12-18T03:20:10;99600.94;;;-1.06;100.00
24154;BME280;12312;53.362;-1.518;2022-12-18T03:22:38;99587.34;;;-0.79;100.00
24154;BME280;12312;53.362;-1.518;2022-12-18T03:25:09;99592.63;;;-0.82;100.00
24154;BME280;12312;53.362;-1.518;2022-12-18T03:27:40;99588.22;;;-0.80;100.00
24154;BME280;12312;53.362;-1.518;2022-12-18T03:30:10;99589.00;;;-0.77;100.00
24154;BME280;12312;53.362;-1.518;2022-12-18T03:33:02;99583.13;;;-0.86;100.00
24154;BME280;12312;53.362;-1.518;2022-12-18T03:35:36;99574.94;;;-0.71;100.00
24154;BME280;12312;53.362;-1.518;2022-12-18T03:38:03;99579.81;;;-0.94;100.00
24154;BME280;12312;53.362;-1.518;2022-12-18T03:40:35;99573.94;;;-1.04;100.00
24154;BME280;12312;53.362;-1.518;2022-12-18T03:43:10;99564.84;;;-0.86;100.00
24154;BME280;12312;53.362;-1.518;2022-12-18T03:45:39;99550.59;;;-1.11;100.00
24154;BME280;12312;53.362;-1.518;2022-12-18T03:48:20;99546.78;;;-0.97;100.00
24154;BME280;12312;53.362;-1.518;2022-12-18T03:55:47;99531.63;;;-0.80;100.00
24154;BME280;12312;53.362;-1.518;2022-12-18T03:58:18;99527.25;;;-0.79;100.00
24154;BME280;12312;53.362;-1.518;2022-12-18T04:00:45;99517.72;;;-0.82;100.00
24154;BME280;12312;53.362;-1.518;2022-12-18T04:03:13;99505.09;;;-1.01;100.00
24154;BME280;12312;53.362;-1.518;2022-12-18T04:05:42;99500.66;;;-0.96;100.00
24154;BME280;12312;53.362;-1.518;2022-12-18T04:08:09;99509.84;;;-1.20;100.00
24154;BME280;12312;53.362;-1.518;2022-12-18T04:10:35;99497.50;;;-1.12;100.00
24154;BME280;12312;53.362;-1.518;2022-12-18T04:13:05;99494.84;;;-1.10;100.00
24154;BME280;12312;53.362;-1.518;2022-12-18T04:15:34;99482.28;;;-0.93;100.00
24154;BME280;12312;53.362;-1.518;2022-12-18T04:18:02;99479.06;;;-1.04;100.00
24154;BME280;12312;53.362;-1.518;2022-12-18T04:20:27;99484.47;;;-1.13;100.00
24154;BME280;12312;53.362;-1.518;2022-12-18T04:22:54;99475.69;;;-1.09;100.00
24154;BME280;12312;53.362;-1.518;2022-12-18T04:25:47;99483.19;;;-0.94;100.00
24154;BME280;12312;53.362;-1.518;2022-12-18T04:28:13;99492.53;;;-0.84;100.00
24154;BME280;12312;53.362;-1.518;2022-12-18T04:30:39;99471.56;;;-0.81;100.00
24154;BME280;12312;53.362;-1.518;2022-12-18T04:33:25;99469.84;;;-0.82;100.00
24154;BME280;12312;53.362;-1.518;2022-12-18T04:35:51;99449.31;;;-0.97;100.00
24154;BME280;12312;53.362;-1.518;2022-12-18T04:38:16;99453.72;;;-0.99;100.00
24154;BME280;12312;53.362;-1.518;2022-12-18T04:40:43;99442.16;;;-0.89;100.00
24154;BME280;12312;53.362;-1.518;2022-12-18T04:43:10;99450.31;;;-1.03;100.00
24154;BME280;12312;53.362;-1.518;2022-12-18T04:45:36;99460.56;;;-0.95;100.00
24154;BME280;12312;53.362;-1.518;2022-12-18T04:48:02;99457.34;;;-1.06;100.00
24154;BME280;12312;53.362;-1.518;2022-12-18T04:50:29;99461.25;;;-0.87;100.00
24154;BME280;12312;53.362;-1.518;2022-12-18T04:52:55;99449.09;;;-0.88;100.00
24154;BME280;12312;53.362;-1.518;2022-12-18T04:55:24;99447.50;;;-0.95;100.00
24154;BME280;12312;53.362;-1.518;2022-12-18T04:57:49;99439.53;;;-0.89;100.00
24154;BME280;12312;53.362;-1.518;2022-12-18T05:00:15;99433.84;;;-1.06;100.00
24154;BME280;12312;53.362;-1.518;2022-12-18T05:02:42;99428.53;;;-1.03;100.00
24154;BME280;12312;53.362;-1.518;2022-12-18T05:05:10;99423.22;;;-0.97;100.00
24154;BME280;12312;53.362;-1.518;2022-12-18T05:07:35;99419.47;;;-0.87;100.00
24154;BME280;12312;53.362;-1.518;2022-12-18T05:10:02;99426.25;;;-0.80;100.00
24154;BME280;12312;53.362;-1.518;2022-12-18T05:12:30;99421.75;;;-0.74;100.00
24154;BME280;12312;53.362;-1.518;2022-12-18T05:14:56;99405.31;;;-0.79;100.00
24154;BME280;12312;53.362;-1.518;2022-12-18T05:17:23;99399.84;;;-0.68;100.00
24154;BME280;12312;53.362;-1.518;2022-12-18T05:19:49;99393.66;;;-0.64;100.00
24154;BME280;12312;53.362;-1.518;2022-12-18T05:22:15;99385.09;;;-0.71;100.00
24154;BME280;12312;53.362;-1.518;2022-12-18T05:24:41;99385.66;;;-0.58;100.00
24154;BME280;12312;53.362;-1.518;2022-12-18T05:27:07;99391.03;;;-0.64;100.00
24154;BME280;12312;53.362;-1.518;2022-12-18T05:29:32;99399.75;;;-0.65;100.00
24154;BME280;12312;53.362;-1.518;2022-12-18T05:31:58;99403.44;;;-0.72;100.00
24154;BME280;12312;53.362;-1.518;2022-12-18T05:34:24;99394.75;;;-0.74;100.00
24154;BME280;12312;53.362;-1.518;2022-12-18T05:36:49;99391.81;;;-0.94;100.00
24154;BME280;12312;53.362;-1.518;2022-12-18T05:39:14;99382.53;;;-1.07;100.00
24154;BME280;12312;53.362;-1.518;2022-12-18T05:41:40;99386.84;;;-1.06;100.00
24154;BME280;12312;53.362;-1.518;2022-12-18T05:44:06;99381.69;;;-1.09;100.00
24154;BME280;12312;53.362;-1.518;2022-12-18T05:46:31;99389.06;;;-0.90;100.00
24154;BME280;12312;53.362;-1.518;2022-12-18T05:49:00;99387.91;;;-1.15;100.00
24154;BME280;12312;53.362;-1.518;2022-12-18T05:51:26;99404.31;;;-1.08;100.00
24154;BME280;12312;53.362;-1.518;2022-12-18T05:53:52;99410.47;;;-1.12;100.00
24154;BME280;12312;53.362;-1.518;2022-12-18T05:56:19;99406.00;;;-1.07;100.00
24154;BME280;12312;53.362;-1.518;2022-12-18T05:58:46;99402.66;;;-1.12;100.00
24154;BME280;12312;53.362;-1.518;2022-12-18T06:01:17;99409.75;;;-1.17;100.00
24154;BME280;12312;53.362;-1.518;2022-12-18T06:03:44;99415.84;;;-1.18;100.00
24154;BME280;12312;53.362;-1.518;2022-12-18T06:06:18;99411.25;;;-1.07;100.00
24154;BME280;12312;53.362;-1.518;2022-12-18T06:08:44;99416.19;;;-0.95;100.00
24154;BME280;12312;53.362;-1.518;2022-12-18T06:11:10;99416.31;;;-1.01;100.00
24154;BME280;12312;53.362;-1.518;2022-12-18T06:13:37;99433.13;;;-1.13;100.00
24154;BME280;12312;53.362;-1.518;2022-12-18T06:16:06;99411.25;;;-1.07;100.00
24154;BME280;12312;53.362;-1.518;2022-12-18T06:18:32;99400.56;;;-1.35;100.00
24154;BME280;12312;53.362;-1.518;2022-12-18T06:20:58;99398.94;;;-1.40;100.00
24154;BME280;12312;53.362;-1.518;2022-12-18T06:23:24;99399.72;;;-1.35;100.00
24154;BME280;12312;53.362;-1.518;2022-12-18T06:25:50;99403.38;;;-1.44;100.00
24154;BME280;12312;53.362;-1.518;2022-12-18T06:28:15;99399.56;;;-1.28;100.00
24154;BME280;12312;53.362;-1.518;2022-12-18T06:30:46;99404.06;;;-1.36;100.00
24154;BME280;12312;53.362;-1.518;2022-12-18T06:33:13;99392.97;;;-1.45;100.00
24154;BME280;12312;53.362;-1.518;2022-12-18T06:35:40;99391.25;;;-1.46;100.00
24154;BME280;12312;53.362;-1.518;2022-12-18T06:38:06;99387.69;;;-1.42;100.00
24154;BME280;12312;53.362;-1.518;2022-12-18T06:40:33;99386.44;;;-1.25;100.00
24154;BME280;12312;53.362;-1.518;2022-12-18T06:43:00;99403.06;;;-1.30;100.00
24154;BME280;12312;53.362;-1.518;2022-12-18T06:45:25;99408.34;;;-1.33;100.00
24154;BME280;12312;53.362;-1.518;2022-12-18T06:47:51;99406.53;;;-1.30;100.00
24154;BME280;12312;53.362;-1.518;2022-12-18T06:50:17;99411.78;;;-1.31;100.00
24154;BME280;12312;53.362;-1.518;2022-12-18T06:52:43;99415.03;;;-1.20;100.00
24154;BME280;12312;53.362;-1.518;2022-12-18T06:55:10;99419.91;;;-1.43;100.00
24154;BME280;12312;53.362;-1.518;2022-12-18T06:57:37;99416.44;;;-1.45;100.00
24154;BME280;12312;53.362;-1.518;2022-12-18T07:00:04;99406.50;;;-1.28;100.00
24154;BME280;12312;53.362;-1.518;2022-12-18T07:02:31;99408.34;;;-1.33;100.00
24154;BME280;12312;53.362;-1.518;2022-12-18T07:04:57;99404.34;;;-1.48;100.00
24154;BME280;12312;53.362;-1.518;2022-12-18T07:07:23;99408.50;;;-1.39;100.00
24154;BME280;12312;53.362;-1.518;2022-12-18T07:09:49;99391.13;;;-1.40;100.00
24154;BME280;12312;53.362;-1.518;2022-12-18T07:12:15;99375.88;;;-1.58;100.00
24154;BME280;12312;53.362;-1.518;2022-12-18T07:14:41;99383.69;;;-1.58;100.00
24154;BME280;12312;53.362;-1.518;2022-12-18T07:17:07;99379.56;;;-1.68;100.00
24154;BME280;12312;53.362;-1.518;2022-12-18T07:19:33;99370.59;;;-1.55;100.00
24154;BME280;12312;53.362;-1.518;2022-12-18T07:21:58;99377.41;;;-1.50;100.00
24154;BME280;12312;53.362;-1.518;2022-12-18T07:24:23;99389.78;;;-1.59;100.00
24154;BME280;12312;53.362;-1.518;2022-12-18T07:26:49;99387.88;;;-1.51;100.00
24154;BME280;12312;53.362;-1.518;2022-12-18T07:29:15;99375.06;;;-1.62;100.00
24154;BME280;12312;53.362;-1.518;2022-12-18T07:31:40;99359.56;;;-1.68;100.00
24154;BME280;12312;53.362;-1.518;2022-12-18T07:34:10;99362.84;;;-1.58;100.00
24154;BME280;12312;53.362;-1.518;2022-12-18T07:36:37;99368.75;;;-1.50;100.00
24154;BME280;12312;53.362;-1.518;2022-12-18T07:39:03;99356.75;;;-1.59;100.00
24154;BME280;12312;53.362;-1.518;2022-12-18T07:41:29;99350.56;;;-1.53;100.00
24154;BME280;12312;53.362;-1.518;2022-12-18T07:43:54;99343.81;;;-1.63;100.00
24154;BME280;12312;53.362;-1.518;2022-12-18T07:46:20;99361.34;;;-1.71;100.00
24154;BME280;12312;53.362;-1.518;2022-12-18T07:48:46;99344.56;;;-1.58;100.00
24154;BME280;12312;53.362;-1.518;2022-12-18T07:51:12;99355.22;;;-1.67;100.00
24154;BME280;12312;53.362;-1.518;2022-12-18T07:53:38;99345.72;;;-1.71;100.00
24154;BME280;12312;53.362;-1.518;2022-12-18T07:56:09;99347.97;;;-1.56;100.00
24154;BME280;12312;53.362;-1.518;2022-12-18T07:58:36;99342.47;;;-1.43;100.00
24154;BME280;12312;53.362;-1.518;2022-12-18T08:01:06;99340.34;;;-1.65;100.00
24154;BME280;12312;53.362;-1.518;2022-12-18T08:03:32;99347.97;;;-1.56;100.00
24154;BME280;12312;53.362;-1.518;2022-12-18T08:06:01;99359.09;;;-1.47;100.00
24154;BME280;12312;53.362;-1.518;2022-12-18T08:08:27;99356.50;;;-1.48;100.00
24154;BME280;12312;53.362;-1.518;2022-12-18T08:10:52;99362.94;;;-1.63;100.00
24154;BME280;12312;53.362;-1.518;2022-12-18T08:13:18;99348.59;;;-1.45;100.00
24154;BME280;12312;53.362;-1.518;2022-12-18T08:15:44;99354.66;;;-1.43;100.00
24154;BME280;12312;53.362;-1.518;2022-12-18T08:18:09;99361.81;;;-1.53;100.00
24154;BME280;12312;53.362;-1.518;2022-12-18T08:20:35;99367.53;;;-1.36;100.00
24154;BME280;12312;53.362;-1.518;2022-12-18T08:23:00;99369.44;;;-1.44;100.00
24154;BME280;12312;53.362;-1.518;2022-12-18T08:25:26;99366.88;;;-1.45;100.00
24154;BME280;12312;53.362;-1.518;2022-12-18T08:27:52;99370.66;;;-1.58;100.00
24154;BME280;12312;53.362;-1.518;2022-12-18T08:30:17;99362.91;;;-1.61;100.00
24154;BME280;12312;53.362;-1.518;2022-12-18T08:32:43;99364.34;;;-1.48;100.00
24154;BME280;12312;53.362;-1.518;2022-12-18T08:35:08;99368.91;;;-1.59;100.00
24154;BME280;12312;53.362;-1.518;2022-12-18T08:37:35;99362.53;;;-1.45;100.00
24154;BME280;12312;53.362;-1.518;2022-12-18T08:40:00;99348.50;;;-1.41;100.00
24154;BME280;12312;53.362;-1.518;2022-12-18T08:42:26;99349.34;;;-1.39;100.00
24154;BME280;12312;53.362;-1.518;2022-12-18T08:45:10;99346.94;;;-1.48;100.00
24154;BME280;12312;53.362;-1.518;2022-12-18T08:47:35;99340.84;;;-1.48;100.00
24154;BME280;12312;53.362;-1.518;2022-12-18T08:50:01;99346.38;;;-1.62;100.00
24154;BME280;12312;53.362;-1.518;2022-12-18T08:52:27;99328.84;;;-1.55;100.00
24154;BME280;12312;53.362;-1.518;2022-12-18T08:54:53;99321.84;;;-1.53;100.00
24154;BME280;12312;53.362;-1.518;2022-12-18T08:57:18;99316.88;;;-1.65;100.00
24154;BME280;12312;53.362;-1.518;2022-12-18T08:59:44;99316.81;;;-1.62;100.00
24154;BME280;12312;53.362;-1.518;2022-12-18T09:02:10;99309.91;;;-1.63;100.00
24154;BME280;12312;53.362;-1.518;2022-12-18T09:04:36;99314.91;;;-1.54;100.00
24154;BME280;12312;53.362;-1.518;2022-12-18T09:07:01;99328.63;;;-1.46;100.00
24154;BME280;12312;53.362;-1.518;2022-12-18T09:09:27;99308.81;;;-1.55;100.00
24154;BME280;12312;53.362;-1.518;2022-12-18T09:11:52;99297.25;;;-1.43;100.00
24154;BME280;12312;53.362;-1.518;2022-12-18T09:14:18;99291.75;;;-1.68;100.00
24154;BME280;12312;53.362;-1.518;2022-12-18T09:16:43;99290.41;;;-1.47;100.00
24154;BME280;12312;53.362;-1.518;2022-12-18T09:19:09;99299.63;;;-1.33;100.00
24154;BME280;12312;53.362;-1.518;2022-12-18T09:21:35;99289.97;;;-1.29;100.00
24154;BME280;12312;53.362;-1.518;2022-12-18T09:24:01;99289.25;;;-1.36;100.00
24154;BME280;12312;53.362;-1.518;2022-12-18T09:26:26;99276.75;;;-1.58;100.00
24154;BME280;12312;53.362;-1.518;2022-12-18T09:28:52;99274.47;;;-1.72;100.00
24154;BME280;12312;53.362;-1.518;2022-12-18T09:31:21;99254.22;;;-1.62;100.00
24154;BME280;12312;53.362;-1.518;2022-12-18T09:33:46;99250.69;;;-1.25;100.00
24154;BME280;12312;53.362;-1.518;2022-12-18T09:36:14;99260.50;;;-1.34;100.00
24154;BME280;12312;53.362;-1.518;2022-12-18T09:38:40;99243.28;;;-1.41;100.00
24154;BME280;12312;53.362;-1.518;2022-12-18T09:41:30;99249.16;;;-1.33;100.00
24154;BME280;12312;53.362;-1.518;2022-12-18T09:44:13;99238.91;;;-1.41;100.00
24154;BME280;12312;53.362;-1.518;2022-12-18T09:46:46;99234.41;;;-1.34;100.00
24154;BME280;12312;53.362;-1.518;2022-12-18T09:49:18;99210.13;;;-1.38;100.00
24154;BME280;12312;53.362;-1.518;2022-12-18T09:57:35;99210.31;;;-1.45;100.00
24154;BME280;12312;53.362;-1.518;2022-12-18T10:00:18;99207.75;;;-1.47;100.00
24154;BME280;12312;53.362;-1.518;2022-12-18T10:02:44;99208.66;;;-1.48;100.00
24154;BME280;12312;53.362;-1.518;2022-12-18T10:05:13;99212.66;;;-1.35;100.00
24154;BME280;12312;53.362;-1.518;2022-12-18T10:08:22;99205.44;;;-1.24;100.00
24154;BME280;12312;53.362;-1.518;2022-12-18T10:10:52;99209.53;;;-1.47;100.00
24154;BME280;12312;53.362;-1.518;2022-12-18T10:13:33;99210.25;;;-1.42;100.00
24154;BME280;12312;53.362;-1.518;2022-12-18T10:16:26;99203.31;;;-1.43;100.00
24154;BME280;12312;53.362;-1.518;2022-12-18T10:21:32;99191.63;;;-1.29;100.00
24154;BME280;12312;53.362;-1.518;2022-12-18T10:24:15;99181.66;;;-1.47;100.00
24154;BME280;12312;53.362;-1.518;2022-12-18T10:26:43;99182.69;;;-1.19;100.00
24154;BME280;12312;53.362;-1.518;2022-12-18T10:29:14;99178.47;;;-1.24;100.00
24154;BME280;12312;53.362;-1.518;2022-12-18T10:31:40;99173.28;;;-1.26;100.00
24154;BME280;12312;53.362;-1.518;2022-12-18T10:34:15;99159.63;;;-1.35;100.00
24154;BME280;12312;53.362;-1.518;2022-12-18T10:36:40;99150.44;;;-1.50;100.00
24154;BME280;12312;53.362;-1.518;2022-12-18T10:39:21;99153.00;;;-1.48;100.00
24154;BME280;12312;53.362;-1.518;2022-12-18T10:42:11;99151.84;;;-1.37;100.00
24154;BME280;12312;53.362;-1.518;2022-12-18T10:44:41;99143.00;;;-1.31;100.00
24154;BME280;12312;53.362;-1.518;2022-12-18T10:47:15;99133.75;;;-1.12;100.00
24154;BME280;12312;53.362;-1.518;2022-12-18T10:49:49;99126.34;;;-1.27;100.00
24154;BME280;12312;53.362;-1.518;2022-12-18T10:52:21;99112.09;;;-1.14;100.00
24154;BME280;12312;53.362;-1.518;2022-12-18T10:54:58;99114.69;;;-1.14;100.00
24154;BME280;12312;53.362;-1.518;2022-12-18T10:57:36;99111.63;;;-1.30;100.00
24154;BME280;12312;53.362;-1.518;2022-12-18T11:02:46;99098.47;;;-1.25;100.00
24154;BME280;12312;53.362;-1.518;2022-12-18T11:05:32;99103.09;;;-1.36;100.00
24154;BME280;12312;53.362;-1.518;2022-12-18T11:08:00;99099.06;;;-1.16;100.00
24154;BME280;12312;53.362;-1.518;2022-12-18T11:10:31;99085.72;;;-1.05;100.00
24154;BME280;12312;53.362;-1.518;2022-12-18T11:13:12;99085.38;;;-0.93;100.00
24154;BME280;12312;53.362;-1.518;2022-12-18T11:15:41;99075.44;;;-1.11;100.00
24154;BME280;12312;53.362;-1.518;2022-12-18T11:18:33;99081.22;;;-1.00;100.00
24154;BME280;12312;53.362;-1.518;2022-12-18T11:21:07;99078.09;;;-0.82;100.00
24154;BME280;12312;53.362;-1.518;2022-12-18T11:23:35;99071.84;;;-1.07;100.00
24154;BME280;12312;53.362;-1.518;2022-12-18T11:26:03;99057.78;;;-1.03;100.00
24154;BME280;12312;53.362;-1.518;2022-12-18T11:28:49;99056.00;;;-1.01;100.00
24154;BME280;12312;53.362;-1.518;2022-12-18T11:33:54;99043.75;;;-0.99;100.00
24154;BME280;12312;53.362;-1.518;2022-12-18T11:36:22;99045.47;;;-0.98;100.00
24154;BME280;12312;53.362;-1.518;2022-12-18T11:38:49;99034.28;;;-1.03;100.00
24154;BME280;12312;53.362;-1.518;2022-12-18T11:41:30;99029.78;;;-0.98;100.00
24154;BME280;12312;53.362;-1.518;2022-12-18T11:44:35;99021.59;;;-0.86;100.00
24154;BME280;12312;53.362;-1.518;2022-12-18T11:48:04;99011.16;;;-0.86;100.00
24154;BME280;12312;53.362;-1.518;2022-12-18T11:53:04;98992.78;;;-0.83;100.00
24154;BME280;12312;53.362;-1.518;2022-12-18T11:55:41;98985.75;;;-0.81;100.00
24154;BME280;12312;53.362;-1.518;2022-12-18T11:58:12;98989.09;;;-0.76;100.00
24154;BME280;12312;53.362;-1.518;2022-12-18T12:00:47;98982.03;;;-0.74;100.00
24154;BME280;12312;53.362;-1.518;2022-12-18T12:03:35;98975.06;;;-0.74;100.00
24154;BME280;12312;53.362;-1.518;2022-12-18T12:16:55;98922.47;;;-0.63;100.00
24154;BME280;12312;53.362;-1.518;2022-12-18T12:19:43;98912.03;;;-0.63;100.00
24154;BME280;12312;53.362;-1.518;2022-12-18T12:22:23;98909.56;;;-0.68;100.00
24154;BME280;12312;53.362;-1.518;2022-12-18T12:35:55;98876.66;;;-0.47;100.00
24154;BME280;12312;53.362;-1.518;2022-12-18T12:38:42;98871.03;;;-0.61;100.00
24154;BME280;12312;53.362;-1.518;2022-12-18T12:41:12;98877.06;;;-0.59;100.00
24154;BME280;12312;53.362;-1.518;2022-12-18T12:44:01;98869.50;;;-0.42;100.00
24154;BME280;12312;53.362;-1.518;2022-12-18T12:46:31;98880.59;;;-0.36;100.00
24154;BME280;12312;53.362;-1.518;2022-12-18T12:49:02;98873.19;;;-0.23;100.00
24154;BME280;12312;53.362;-1.518;2022-12-18T12:51:34;98865.03;;;-0.14;100.00
24154;BME280;12312;53.362;-1.518;2022-12-18T12:54:05;98860.56;;;-0.35;100.00
24154;BME280;12312;53.362;-1.518;2022-12-18T12:56:52;98856.69;;;-0.50;100.00
24154;BME280;12312;53.362;-1.518;2022-12-18T13:04:43;98840.22;;;-0.52;100.00
24154;BME280;12312;53.362;-1.518;2022-12-18T13:07:41;98831.13;;;-0.40;100.00
24154;BME280;12312;53.362;-1.518;2022-12-18T13:13:01;98829.38;;;-0.40;100.00
24154;BME280;12312;53.362;-1.518;2022-12-18T13:18:23;98807.44;;;-0.36;100.00
24154;BME280;12312;53.362;-1.518;2022-12-18T13:28:53;98774.31;;;-0.35;100.00
24154;BME280;12312;53.362;-1.518;2022-12-18T13:34:16;98761.78;;;-0.27;100.00
24154;BME280;12312;53.362;-1.518;2022-12-18T13:36:42;98757.94;;;-0.40;100.00
24154;BME280;12312;53.362;-1.518;2022-12-18T13:41:43;98736.13;;;-0.39;100.00
24154;BME280;12312;53.362;-1.518;2022-12-18T13:44:24;98737.66;;;-0.34;100.00
24154;BME280;12312;53.362;-1.518;2022-12-18T13:46:51;98737.84;;;-0.38;100.00
24154;BME280;12312;53.362;-1.518;2022-12-18T13:49:22;98729.72;;;-0.31;100.00
24154;BME280;12312;53.362;-1.518;2022-12-18T13:51:55;98717.47;;;-0.30;100.00
24154;BME280;12312;53.362;-1.518;2022-12-18T13:54:36;98717.59;;;-0.33;100.00
24154;BME280;12312;53.362;-1.518;2022-12-18T13:57:28;98711.66;;;-0.37;100.00
24154;BME280;12312;53.362;-1.518;2022-12-18T13:59:55;98712.38;;;-0.33;100.00
24154;BME280;12312;53.362;-1.518;2022-12-18T14:02:23;98701.69;;;-0.27;100.00
24154;BME280;12312;53.362;-1.518;2022-12-18T14:04:50;98705.22;;;-0.28;100.00
24154;BME280;12312;53.362;-1.518;2022-12-18T14:07:22;98696.34;;;-0.24;100.00
24154;BME280;12312;53.362;-1.518;2022-12-18T14:09:54;98687.09;;;-0.33;100.00
24154;BME280;12312;53.362;-1.518;2022-12-18T14:12:25;98692.38;;;-0.34;100.00
24154;BME280;12312;53.362;-1.518;2022-12-18T14:15:35;98679.44;;;-0.37;100.00
24154;BME280;12312;53.362;-1.518;2022-12-18T14:18:26;98670.44;;;-0.30;100.00
24154;BME280;12312;53.362;-1.518;2022-12-18T14:20:58;98666.13;;;-0.31;100.00
24154;BME280;12312;53.362;-1.518;2022-12-18T14:26:00;98656.53;;;-0.31;100.00
24154;BME280;12312;53.362;-1.518;2022-12-18T14:28:26;98654.97;;;-0.36;100.00
24154;BME280;12312;53.362;-1.518;2022-12-18T14:30:54;98656.22;;;-0.23;100.00